Time;durP1;ratioP1;P1;durP2;ratioP2;P2;SDS_P1;SDS_P2;PMS_P1;PMS_P2;Temp;Humidity;BMP_temperature;BMP_pressure;BME280_temperature;BME280_humidity;BME280_pressure;Samples;Min_cycle;Max_cycle;Signal;HPM_P1;HPM_P2
2022/11/11 05:03:47;;;;;;;29.33;19.98;;;;;;;8.90;86.62;102171.81;5606320;31;81472;-55
2022/11/11 05:10:47;;;;;;;30.88;19.23;;;;;;;8.57;91.64;102185.59;5589857;31;35258;-55
2022/11/11 05:21:29;;;;;;;29.25;18.55;;;;;;;8.75;89.89;102192.81;5602421;31;34523;-56
2022/11/11 05:28:29;;;;;;;27.90;19.42;;;;;;;8.66;90.66;102194.94;5583770;31;34433;-55
2022/11/11 05:31:49;;;;;;;25.88;18.52;;;;;;;8.81;94.44;102186.56;5588482;31;34423;-55
2022/11/11 05:35:12;;;;;;;26.85;19.05;;;;;;;8.79;87.44;102187.81;5600860;31;35322;-56
2022/11/11 05:38:32;;;;;;;27.42;19.27;;;;;;;8.79;86.83;102187.81;5590392;31;35413;-56
2022/11/11 05:41:53;;;;;;;28.33;19.05;;;;;;;8.76;87.96;102191.75;5593235;31;34513;-56
2022/11/11 05:45:13;;;;;;;24.58;17.77;;;;;;;8.64;87.65;102197.03;5577732;31;35115;-56
2022/11/11 05:48:34;;;;;;;28.42;19.30;;;;;;;8.62;91.63;102200.97;5574950;31;33965;-55
2022/11/11 05:51:55;;;;;;;27.85;18.73;;;;;;;8.41;89.78;102205.72;5575803;31;34474;-55
2022/11/11 05:55:16;;;;;;;28.45;19.52;;;;;;;8.35;98.80;102209.22;5569357;32;34869;-55
2022/11/11 05:58:37;;;;;;;25.15;18.08;;;;;;;8.41;92.99;102212.87;5581003;32;35410;-55
2022/11/11 06:01:57;;;;;;;24.80;17.92;;;;;;;8.31;90.29;102218.72;5591382;31;34387;-56
2022/11/11 06:05:18;;;;;;;26.20;19.25;;;;;;;8.35;88.46;102211.91;5568696;32;34477;-56
2022/11/11 06:08:39;;;;;;;26.08;18.12;;;;;;;8.42;89.27;102225.22;5582706;32;34550;-56
2022/11/11 06:12:00;;;;;;;29.05;19.65;;;;;;;8.45;96.72;102217.59;5574154;31;35311;-55
2022/11/11 06:15:22;;;;;;;28.60;19.65;;;;;;;8.37;92.97;102225.03;5568242;32;35077;-54
2022/11/11 06:18:42;;;;;;;30.15;18.42;;;;;;;8.42;94.42;102231.38;5559572;32;34664;-56
2022/11/11 06:22:03;;;;;;;28.98;18.80;;;;;;;8.49;88.29;102228.66;5557531;32;34508;-56
2022/11/11 06:29:05;;;;;;;24.10;18.37;;;;;;;8.59;97.44;102234.31;5556709;32;34557;-55
2022/11/11 06:32:27;;;;;;;25.88;19.10;;;;;;;8.56;89.99;102239.28;5549560;32;34523;-55
2022/11/11 06:35:48;;;;;;;24.52;17.70;;;;;;;8.65;87.55;102244.13;5550994;32;34534;-55
2022/11/11 06:39:09;;;;;;;27.23;18.80;;;;;;;8.60;93.04;102251.16;5558402;32;35166;-55
2022/11/11 06:42:35;;;;;;;25.10;19.42;;;;;;;8.76;98.10;102245.22;5558444;32;35375;-55
2022/11/11 06:45:56;;;;;;;35.60;19.85;;;;;;;8.92;89.56;102254.53;5555878;32;34093;-55
2022/11/11 06:49:17;;;;;;;26.90;18.00;;;;;;;8.94;90.97;102260.50;5561834;32;34653;-56
2022/11/11 06:52:37;;;;;;;30.42;20.48;;;;;;;8.94;89.22;102255.12;5549897;32;34442;-55
2022/11/11 06:55:58;;;;;;;27.55;20.15;;;;;;;8.97;89.28;102245.81;5550120;32;34578;-55
2022/11/11 06:59:18;;;;;;;28.80;19.00;;;;;;;9.05;90.49;102258.91;5559611;32;35386;-55
2022/11/11 07:02:39;;;;;;;26.90;19.02;;;;;;;9.02;89.61;102262.84;5558674;32;35385;-54
2022/11/11 07:06:01;;;;;;;26.35;18.70;;;;;;;9.17;87.77;102271.31;5556687;32;34568;-57
2022/11/11 07:09:24;;;;;;;29.12;20.55;;;;;;;9.23;93.51;102282.97;5562819;32;34483;-55
2022/11/11 07:12:45;;;;;;;32.20;20.35;;;;;;;9.34;90.79;102294.81;5565900;32;35421;-56
2022/11/11 07:16:09;;;;;;;35.05;20.55;;;;;;;9.43;87.86;102293.44;5549052;32;34532;-56
2022/11/11 07:19:30;;;;;;;28.05;20.80;;;;;;;9.37;88.81;102297.84;5549385;32;34568;-55
2022/11/11 07:22:51;;;;;;;25.42;19.80;;;;;;;9.36;90.41;102296.19;5551214;32;34455;-56
2022/11/11 07:26:11;;;;;;;27.80;19.75;;;;;;;9.51;88.81;102303.03;5552481;32;34213;-57
2022/11/11 07:29:32;;;;;;;30.05;20.12;;;;;;;9.56;87.99;102319.22;5553231;32;35426;-56
2022/11/11 07:32:52;;;;;;;25.65;18.90;;;;;;;9.65;87.80;102315.19;5557730;32;34139;-55
2022/11/11 07:36:14;;;;;;;29.12;21.90;;;;;;;9.58;92.26;102317.16;5551887;32;34466;-56
2022/11/11 07:39:35;;;;;;;27.48;19.80;;;;;;;9.81;88.01;102319.09;5567137;32;35419;-55
2022/11/11 07:42:56;;;;;;;28.87;18.83;;;;;;;9.87;86.76;102327.06;5550276;32;35404;-56
2022/11/11 07:46:16;;;;;;;27.62;19.95;;;;;;;9.94;86.16;102326.97;5553793;32;34429;-56
2022/11/11 07:49:37;;;;;;;34.90;20.42;;;;;;;9.86;86.60;102338.78;5558192;32;34428;-56
2022/11/11 07:52:57;;;;;;;28.92;20.05;;;;;;;9.91;86.59;102340.00;5552286;32;35324;-56
2022/11/11 07:56:18;;;;;;;28.58;19.80;;;;;;;10.05;85.57;102336.06;5553658;32;34416;-56
2022/11/11 07:59:39;;;;;;;27.62;19.15;;;;;;;10.09;85.41;102337.25;5548583;32;34555;-55
2022/11/11 08:02:59;;;;;;;28.73;19.08;;;;;;;10.10;89.83;102333.53;5553066;32;35348;-56
2022/11/11 08:06:28;;;;;;;30.62;19.08;;;;;;;10.18;88.76;102335.06;5550231;32;34540;-56
2022/11/11 08:09:49;;;;;;;26.52;18.30;;;;;;;10.36;85.21;102335.00;5550832;32;35383;-55
2022/11/11 08:16:51;;;;;;;27.25;19.87;;;;;;;10.53;84.15;102349.38;5562999;32;35322;-56
2022/11/11 08:20:12;;;;;;;29.23;19.90;;;;;;;10.52;84.37;102344.22;5558883;32;34226;-56
2022/11/11 08:23:33;;;;;;;29.65;18.65;;;;;;;10.61;84.07;102339.34;5564097;32;34554;-55
2022/11/11 08:27:13;;;;;;;30.58;19.40;;;;;;;10.70;83.61;102337.97;5559143;32;34377;-56
2022/11/11 08:30:34;;;;;;;24.58;17.62;;;;;;;10.77;85.04;102341.34;5558555;32;34508;-56
2022/11/11 08:33:55;;;;;;;28.92;17.12;;;;;;;10.87;94.03;102343.44;5561394;32;34571;-55
2022/11/11 08:37:15;;;;;;;25.58;17.77;;;;;;;10.94;83.13;102346.81;5548386;32;34476;-55
2022/11/11 08:40:35;;;;;;;25.60;17.17;;;;;;;10.98;81.14;102350.66;5548690;32;34517;-56
2022/11/11 08:43:58;;;;;;;25.17;17.25;;;;;;;11.16;80.12;102344.34;5548512;32;34451;-56
2022/11/11 08:47:21;;;;;;;22.33;16.60;;;;;;;11.21;81.50;102341.78;5548761;32;34475;-56
2022/11/11 08:50:42;;;;;;;24.65;15.80;;;;;;;11.28;79.82;102340.59;5555067;32;34519;-55
2022/11/11 08:54:03;;;;;;;19.48;14.25;;;;;;;11.34;80.37;102340.69;5552168;32;34474;-55
2022/11/11 08:57:23;;;;;;;24.23;15.90;;;;;;;11.38;80.53;102336.47;5566408;32;34649;-56
2022/11/11 09:00:44;;;;;;;23.77;15.90;;;;;;;11.44;79.82;102343.59;5550294;32;34288;-56
2022/11/11 09:04:04;;;;;;;25.90;15.23;;;;;;;11.67;88.67;102346.19;5514544;32;34500;-57
2022/11/11 09:07:46;;;;;;;20.95;14.30;;;;;;;11.71;81.18;102346.53;5517586;32;34414;-56
2022/11/11 09:11:06;;;;;;;20.75;15.30;;;;;;;11.87;85.53;102340.44;5510702;32;34274;-56
2022/11/11 09:14:27;;;;;;;22.62;14.87;;;;;;;11.92;80.03;102348.59;5523271;32;34106;-56
2022/11/11 09:17:48;;;;;;;23.65;16.15;;;;;;;12.14;87.41;102348.69;5520680;32;34211;-56
2022/11/11 09:21:09;;;;;;;28.33;18.70;;;;;;;12.28;85.25;102356.47;5511810;32;34636;-56
2022/11/11 09:24:30;;;;;;;34.08;22.62;;;;;;;12.31;84.31;102345.22;5511995;32;34591;-56
2022/11/11 09:27:59;;;;;;;33.47;23.50;;;;;;;12.33;79.86;102348.50;5514176;32;35423;-56
2022/11/11 09:31:21;;;;;;;37.30;23.45;;;;;;;12.36;78.41;102343.44;5512553;32;35403;-56
2022/11/11 09:35:03;;;;;;;33.35;22.90;;;;;;;12.38;79.44;102340.50;5513162;32;34221;-57
2022/11/11 09:38:23;;;;;;;36.70;22.17;;;;;;;12.39;78.27;102345.63;5511030;32;35468;-56
2022/11/11 09:42:17;;;;;;;36.00;20.80;;;;;;;12.36;77.96;102337.25;5521678;32;34244;-56
2022/11/11 09:46:07;;;;;;;33.15;21.85;;;;;;;12.43;80.16;102332.50;5508967;32;34517;-56
2022/11/11 09:49:46;;;;;;;28.73;20.67;;;;;;;12.51;78.56;102342.03;5514173;32;34599;-57
2022/11/11 09:53:32;;;;;;;27.00;20.17;;;;;;;12.40;78.12;102338.37;5513454;32;34072;-56
2022/11/11 09:56:54;;;;;;;32.85;22.60;;;;;;;12.39;80.60;102332.19;5511228;32;34681;-56
2022/11/11 10:00:35;;;;;;;31.90;22.23;;;;;;;12.43;77.49;102336.00;5516420;32;35770;-56
2022/11/11 10:04:05;;;;;;;32.20;21.30;;;;;;;12.51;83.07;102324.03;5517963;32;34456;-56
2022/11/11 10:07:32;;;;;;;33.45;23.15;;;;;;;12.80;83.98;102340.06;5527511;32;34664;-56
2022/11/11 10:10:57;;;;;;;34.35;23.60;;;;;;;12.90;81.87;102324.06;5518833;32;34532;-56
2022/11/11 10:14:18;;;;;;;37.42;24.63;;;;;;;12.92;78.96;102330.03;5521753;32;34500;-55
2022/11/11 10:18:08;;;;;;;30.98;23.10;;;;;;;12.87;77.48;102324.56;5522879;32;35336;-56
2022/11/11 10:21:49;;;;;;;32.60;23.45;;;;;;;13.11;81.49;102328.66;5520151;32;34263;-56
2022/11/11 10:25:30;;;;;;;29.10;20.92;;;;;;;13.10;79.07;102318.94;5517615;32;34380;-57
2022/11/11 10:28:52;;;;;;;33.92;21.50;;;;;;;13.20;83.98;102304.00;5518098;32;34572;-56
2022/11/11 10:32:24;;;;;;;30.23;20.27;;;;;;;13.29;78.58;102297.94;5512997;32;35437;-56
2022/11/11 10:35:47;;;;;;;28.40;19.95;;;;;;;13.29;81.46;102297.94;5512903;32;35325;-56
2022/11/11 10:39:12;;;;;;;40.58;22.00;;;;;;;13.35;83.29;102294.25;5513225;32;34455;-55
2022/11/11 10:42:33;;;;;;;28.95;19.75;;;;;;;13.18;78.56;102290.78;5520787;32;35547;-55
2022/11/11 10:46:39;;;;;;;32.72;21.02;;;;;;;13.23;84.19;102284.63;5512879;32;33282;-56
2022/11/11 10:50:20;;;;;;;25.70;18.98;;;;;;;13.51;82.16;102297.09;5517972;32;35340;-56
2022/11/11 10:54:03;;;;;;;28.60;20.23;;;;;;;13.57;83.13;102310.38;5516242;32;35498;-56
2022/11/11 10:57:38;;;;;;;25.05;18.42;;;;;;;13.47;81.59;102301.37;5518938;32;34540;-55
2022/11/11 11:01:01;;;;;;;26.37;20.47;;;;;;;13.66;84.01;102304.53;5516602;32;34500;-56
2022/11/11 11:04:44;;;;;;;26.05;19.62;;;;;;;13.69;81.83;102307.53;5556099;32;35357;-57
2022/11/11 11:08:16;;;;;;;25.88;19.23;;;;;;;13.56;76.47;102297.97;5550184;32;34534;-56
2022/11/11 11:11:59;;;;;;;27.52;18.95;;;;;;;13.60;80.26;102295.59;5552416;32;34570;-56
2022/11/11 11:15:22;;;;;;;34.35;19.77;;;;;;;13.78;79.03;102270.19;5550133;32;34384;-56
2022/11/11 11:18:43;;;;;;;28.58;19.95;;;;;;;13.82;79.31;102258.62;5549043;32;35468;-56
2022/11/11 11:22:04;;;;;;;27.35;19.48;;;;;;;13.87;80.28;102265.91;5549224;32;34598;-56
2022/11/11 11:25:28;;;;;;;31.62;19.35;;;;;;;13.90;77.97;102265.41;5552623;32;34598;-57
2022/11/11 11:28:54;;;;;;;28.50;18.73;;;;;;;13.89;81.93;102258.41;5562191;31;34468;-56
2022/11/11 11:32:15;;;;;;;26.80;18.52;;;;;;;13.89;78.46;102261.09;5559452;31;34527;-56
2022/11/11 11:35:39;;;;;;;24.65;16.58;;;;;;;13.85;76.74;102260.00;5564439;32;35483;-56
2022/11/11 11:39:00;;;;;;;21.35;14.85;;;;;;;14.00;83.30;102249.31;5568733;32;34458;-56
2022/11/11 11:42:32;;;;;;;18.48;13.80;;;;;;;14.21;83.15;102253.00;5553771;32;35467;-56
2022/11/11 11:45:58;;;;;;;18.48;12.65;;;;;;;14.09;82.91;102247.78;5560168;31;34461;-56
2022/11/11 11:49:30;;;;;;;17.87;11.48;;;;;;;14.17;75.46;102261.84;5549451;32;34484;-56
2022/11/11 11:53:24;;;;;;;25.27;16.25;;;;;;;14.17;84.67;102254.59;5549390;32;34524;-56
2022/11/11 11:56:49;;;;;;;24.05;17.42;;;;;;;14.32;86.25;102248.47;5551181;31;35242;-56
2022/11/11 12:00:35;;;;;;;20.95;16.65;;;;;;;14.48;84.73;102261.00;5556088;31;35363;-56
2022/11/11 12:04:28;;;;;;;26.20;17.25;;;;;;;14.50;80.53;102263.44;5578764;31;34521;-56
2022/11/11 12:08:27;;;;;;;26.37;19.52;;;;;;;14.42;77.69;102272.03;5578802;31;34517;-56
2022/11/11 12:12:09;;;;;;;25.85;17.92;;;;;;;14.47;79.08;102272.03;5567986;32;34501;-57
2022/11/11 12:15:35;;;;;;;33.38;18.00;;;;;;;14.45;80.14;102274.22;5565569;31;34424;-56
2022/11/11 12:19:21;;;;;;;26.67;18.00;;;;;;;14.43;76.05;102274.44;5553522;32;35420;-56
2022/11/11 12:23:07;;;;;;;25.67;17.12;;;;;;;14.47;75.71;102275.59;5575539;31;35376;-55
2022/11/11 12:26:35;;;;;;;25.88;16.75;;;;;;;14.49;75.58;102259.91;5581122;31;34546;-56
2022/11/11 12:30:01;;;;;;;21.25;14.80;;;;;;;14.44;73.19;102272.59;5558718;31;34516;-55
2022/11/11 12:33:41;;;;;;;18.40;12.20;;;;;;;14.49;75.12;102264.50;5559165;31;35352;-57
2022/11/11 12:37:33;;;;;;;21.95;14.73;;;;;;;14.47;73.23;102272.03;5551936;32;34462;-56
2022/11/11 12:41:08;;;;;;;18.80;11.93;;;;;;;14.18;68.67;102272.41;5548302;32;34523;-56
2022/11/11 12:44:40;;;;;;;12.13;7.12;;;;;;;14.15;73.32;102280.19;5566573;31;35454;-56
2022/11/11 12:48:15;;;;;;;7.28;2.92;;;;;;;14.18;67.00;102268.91;5551709;32;34639;-56
2022/11/11 12:51:50;;;;;;;4.97;2.95;;;;;;;14.14;63.24;102267.75;5552240;31;35147;-56
2022/11/11 12:55:22;;;;;;;7.62;3.70;;;;;;;14.31;67.37;102249.56;5550665;32;34497;-56
2022/11/11 12:58:58;;;;;;;9.23;3.78;;;;;;;14.42;69.94;102261.22;5550889;32;34600;-56
2022/11/11 13:02:35;;;;;;;;;;;;;;;14.50;63.20;102264.31;5557039;32;35490;-56
2022/11/11 13:06:31;;;;;;;8.82;3.00;;;;;;;14.45;65.36;102260.72;5548904;32;35630;-56
2022/11/11 13:10:00;;;;;;;10.52;3.33;;;;;;;14.36;66.88;102262.28;5557128;32;34705;-56
2022/11/11 13:13:45;;;;;;;6.75;3.42;;;;;;;14.41;62.47;102257.72;5549004;32;34587;-56
2022/11/11 13:17:11;;;;;;;7.55;3.10;;;;;;;14.45;60.86;102237.25;5557146;32;35154;-56
2022/11/11 13:20:44;;;;;;;;;;;;;;;14.39;62.22;102229.38;5560330;32;35449;-56
2022/11/11 13:24:12;;;;;;;6.32;2.87;;;;;;;14.30;61.24;102229.03;5551807;32;34825;-56
2022/11/11 13:27:39;;;;;;;7.47;3.20;;;;;;;14.32;62.39;102235.00;5551004;32;35467;-56
2022/11/11 13:31:23;;;;;;;11.05;3.87;;;;;;;14.33;64.48;102244.72;5555074;32;35463;-56
2022/11/11 13:34:45;;;;;;;9.40;4.28;;;;;;;14.26;63.11;102247.63;5558599;32;34588;-57
2022/11/11 13:38:11;;;;;;;12.15;4.93;;;;;;;14.28;64.70;102250.87;5554851;32;34447;-57
2022/11/11 13:41:37;;;;;;;10.30;3.92;;;;;;;14.21;64.89;102250.31;5551358;32;35028;-56
2022/11/11 13:45:02;;;;;;;7.72;2.95;;;;;;;14.27;63.54;102248.44;5551164;32;34700;-56
2022/11/11 13:48:27;;;;;;;11.77;3.57;;;;;;;14.31;61.40;102238.78;5551083;32;35433;-56
2022/11/11 13:51:57;;;;;;;6.20;3.12;;;;;;;14.25;62.27;102229.81;5550575;32;34459;-56
2022/11/11 13:55:33;;;;;;;11.90;3.12;;;;;;;14.25;62.75;102237.13;5550571;32;34718;-56
2022/11/11 13:58:55;;;;;;;11.02;3.00;;;;;;;14.22;63.70;102238.44;5549627;32;34539;-56
2022/11/11 14:02:18;;;;;;;6.45;3.17;;;;;;;14.18;62.72;102223.03;5550966;32;34533;-56
2022/11/11 14:05:38;;;;;;;5.65;2.80;;;;;;;14.16;63.91;102225.97;5550564;32;34641;-56
2022/11/11 14:09:00;;;;;;;6.60;2.62;;;;;;;14.12;66.88;102226.78;5550873;32;34528;-56
2022/11/11 14:12:33;;;;;;;7.15;2.70;;;;;;;14.12;68.04;102234.84;5550933;32;34616;-56
2022/11/11 14:15:54;;;;;;;9.32;3.70;;;;;;;14.09;65.81;102231.59;5550570;32;34608;-56
2022/11/11 14:19:17;;;;;;;9.98;3.83;;;;;;;14.15;72.89;102228.94;5550538;32;34446;-56
2022/11/11 14:22:38;;;;;;;9.95;4.03;;;;;;;14.10;68.99;102230.53;5550463;32;34558;-56
2022/11/11 14:26:04;;;;;;;7.65;3.47;;;;;;;14.13;66.10;102233.78;5550729;32;34565;-56
2022/11/11 14:29:34;;;;;;;12.57;3.97;;;;;;;14.10;65.66;102217.06;5550744;32;34607;-56
2022/11/11 14:33:00;;;;;;;7.93;4.18;;;;;;;14.03;67.22;102211.06;5550543;32;34693;-56
2022/11/11 14:36:50;;;;;;;9.90;4.22;;;;;;;13.95;69.53;102202.66;5550339;32;35358;-56
2022/11/11 14:40:22;;;;;;;18.62;4.28;;;;;;;13.92;72.62;102201.28;5550235;32;35443;-56
2022/11/11 14:43:43;;;;;;;9.98;3.92;;;;;;;13.86;70.46;102199.59;5550309;32;35420;-56
2022/11/11 14:47:06;;;;;;;9.00;4.53;;;;;;;13.86;68.21;102200.41;5550349;32;34537;-55
2022/11/11 14:50:26;;;;;;;9.50;4.05;;;;;;;13.77;66.88;102206.53;5549694;32;34624;-56
2022/11/11 14:53:52;;;;;;;8.45;4.00;;;;;;;13.71;68.70;102204.84;5550419;32;34618;-56
2022/11/11 14:57:21;;;;;;;10.68;4.32;;;;;;;13.76;72.00;102210.31;5550435;32;34502;-56
2022/11/11 15:01:02;;;;;;;11.07;4.57;;;;;;;13.71;68.82;102202.16;5550446;32;35384;-56
2022/11/11 15:04:23;;;;;;;8.70;4.78;;;;;;;13.62;69.76;102204.53;5549001;32;34462;-56
2022/11/11 15:08:09;;;;;;;16.05;4.80;;;;;;;13.56;71.85;102210.94;5549905;32;33993;-56
2022/11/11 15:11:53;;;;;;;14.15;5.90;;;;;;;13.49;71.34;102213.84;5550311;32;34537;-56
2022/11/11 15:15:23;;;;;;;14.15;6.87;;;;;;;13.53;69.82;102203.34;5550468;32;35467;-56
2022/11/11 15:18:56;;;;;;;22.52;7.28;;;;;;;13.44;70.53;102211.06;5550439;32;34529;-56
2022/11/11 15:22:45;;;;;;;13.48;6.90;;;;;;;13.38;71.76;102212.94;5550516;32;34583;-56
2022/11/11 15:26:31;;;;;;;17.12;9.50;;;;;;;13.29;73.81;102210.94;5550236;32;34514;-56
2022/11/11 15:29:55;;;;;;;17.70;10.10;;;;;;;13.24;72.26;102214.38;5550372;32;34676;-56
2022/11/11 15:33:27;;;;;;;17.73;9.82;;;;;;;13.15;73.84;102216.69;5550195;32;34490;-56
2022/11/11 15:37:01;;;;;;;18.67;10.68;;;;;;;13.10;74.59;102219.31;5550370;32;35474;-56
2022/11/11 15:40:31;;;;;;;23.15;11.60;;;;;;;13.01;75.66;102220.81;5550084;32;35423;-55
2022/11/11 15:43:52;;;;;;;19.30;12.18;;;;;;;12.88;75.04;102219.34;5549786;32;34529;-56
2022/11/11 15:47:15;;;;;;;23.40;13.45;;;;;;;12.78;76.87;102227.28;5549216;32;35355;-56
2022/11/11 15:50:36;;;;;;;24.35;14.00;;;;;;;12.83;76.03;102232.72;5550175;32;35487;-55
2022/11/11 15:54:18;;;;;;;22.55;15.30;;;;;;;12.85;75.55;102230.59;5550136;32;35406;-56
2022/11/11 15:57:39;;;;;;;23.48;15.35;;;;;;;12.81;75.64;102234.84;5549876;32;34593;-55
2022/11/11 16:01:03;;;;;;;21.60;14.10;;;;;;;12.68;76.37;102235.22;5576187;31;35439;-56
2022/11/11 16:04:24;;;;;;;24.33;15.02;;;;;;;12.56;78.12;102232.63;5577617;31;35501;-56
2022/11/11 16:08:11;;;;;;;23.00;14.35;;;;;;;12.51;78.03;102239.81;5577944;31;34533;-55
2022/11/11 16:11:32;;;;;;;23.70;14.48;;;;;;;12.46;78.41;102240.56;5579504;31;34600;-56
2022/11/11 16:14:55;;;;;;;21.77;14.20;;;;;;;12.31;79.06;102251.09;5579402;31;34280;-56
2022/11/11 16:18:23;;;;;;;22.23;14.05;;;;;;;12.20;82.30;102252.81;5582011;31;34545;-56
2022/11/11 16:21:59;;;;;;;20.75;14.77;;;;;;;12.18;79.43;102249.53;5583452;31;35366;-56
2022/11/11 16:25:21;;;;;;;26.23;16.02;;;;;;;12.15;78.59;102245.50;5579298;31;35259;-55
2022/11/11 16:28:51;;;;;;;23.67;15.40;;;;;;;12.08;79.65;102246.69;5574439;31;35408;-56
2022/11/11 16:32:18;;;;;;;22.40;15.45;;;;;;;12.22;78.97;102242.63;5576618;31;34480;-56
2022/11/11 16:35:39;;;;;;;25.83;16.98;;;;;;;12.25;79.02;102246.69;5571118;31;34615;-56
2022/11/11 16:39:20;;;;;;;21.35;15.77;;;;;;;12.12;79.71;102243.28;5568981;32;34597;-55
2022/11/11 16:42:40;;;;;;;25.75;16.15;;;;;;;11.97;80.48;102241.16;5569000;32;35364;-55
2022/11/11 16:46:04;;;;;;;26.20;17.52;;;;;;;11.97;84.35;102235.78;5569020;32;34589;-55
